Time;durP1;ratioP1;P1;durP2;ratioP2;P2;SDS_P1;SDS_P2;PMS_P1;PMS_P2;Temp;Humidity;BMP_temperature;BMP_pressure;BME280_temperature;BME280_humidity;BME280_pressure;Samples;Min_cycle;Max_cycle;Signal;HPM_P1;HPM_P2
2021/06/07 00:02:05;;;;;;;4.07;3.03;;;;;;;17.00;54.00;101247.59;3517806;40;20294;-54
2021/06/07 00:04:32;;;;;;;3.45;3.08;;;;;;;17.02;55.22;101250.22;3521213;40;20058;-55
2021/06/07 00:07:00;;;;;;;3.92;3.17;;;;;;;17.01;55.28;101249.38;3520039;40;20476;-54
2021/06/07 00:09:28;;;;;;;3.65;3.35;;;;;;;17.01;54.57;101248.50;3521398;40;20107;-52
2021/06/07 00:11:58;;;;;;;3.58;2.90;;;;;;;16.84;55.26;101248.34;3520305;40;20063;-53
2021/06/07 00:14:32;;;;;;;7.47;3.08;;;;;;;16.76;55.72;101247.41;3520759;40;20063;-55
2021/06/07 00:16:59;;;;;;;3.85;2.80;;;;;;;16.82;55.74;101246.59;3519383;40;20077;-54
2021/06/07 00:19:29;;;;;;;6.00;2.88;;;;;;;16.93;55.68;101242.38;3521150;40;20075;-52
2021/06/07 00:21:57;;;;;;;4.82;3.05;;;;;;;16.75;56.18;101248.25;3520174;40;20070;-60
2021/06/07 00:24:25;;;;;;;4.65;2.85;;;;;;;16.82;55.15;101251.75;3520934;40;20125;-52
2021/06/07 00:26:52;;;;;;;4.00;3.13;;;;;;;16.74;56.04;101247.41;3520844;40;20332;-55
2021/06/07 00:29:19;;;;;;;6.30;3.13;;;;;;;16.72;56.24;101248.22;3518525;40;20445;-57
2021/06/07 00:31:46;;;;;;;3.72;2.90;;;;;;;16.56;57.31;101244.59;3520587;40;20067;-54
2021/06/07 00:34:14;;;;;;;3.78;3.35;;;;;;;16.45;56.44;101241.88;3520834;40;20051;-60
2021/06/07 00:36:41;;;;;;;3.72;3.33;;;;;;;16.48;56.24;101252.28;3517633;40;20416;-56
2021/06/07 00:39:13;;;;;;;7.22;3.65;;;;;;;16.52;56.56;101248.88;3525465;40;20058;-53
2021/06/07 00:41:42;;;;;;;4.82;3.00;;;;;;;16.57;56.60;101250.63;3520645;40;20548;-55
2021/06/07 00:44:12;;;;;;;4.10;3.70;;;;;;;16.31;57.66;101246.03;3520195;40;20423;-52
2021/06/07 00:46:40;;;;;;;5.20;3.22;;;;;;;16.25;58.02;101241.69;3520654;40;20465;-55
2021/06/07 00:49:08;;;;;;;4.65;3.65;;;;;;;16.22;57.89;101248.53;3520046;40;20544;-51
2021/06/07 00:51:36;;;;;;;3.65;3.33;;;;;;;16.18;58.07;101250.22;3520989;40;20095;-57
2021/06/07 00:54:05;;;;;;;7.43;3.55;;;;;;;16.15;58.04;101242.44;3517045;40;20095;-53
2021/06/07 00:56:32;;;;;;;4.05;3.63;;;;;;;16.52;57.69;101246.28;3520832;40;20098;-54
2021/06/07 00:58:59;;;;;;;4.32;3.45;;;;;;;16.41;57.44;101255.66;3520106;40;20091;-50
2021/06/07 01:01:28;;;;;;;3.38;3.08;;;;;;;16.29;58.33;101243.44;3520802;40;20890;-56
2021/06/07 01:03:57;;;;;;;3.88;3.55;;;;;;;16.46;57.19;101241.06;3519944;40;20067;-53
2021/06/07 01:06:25;;;;;;;3.42;3.13;;;;;;;16.18;58.14;101250.22;3520887;40;20062;-56
2021/06/07 01:08:54;;;;;;;3.97;3.67;;;;;;;15.98;59.18;101243.94;3519656;40;20100;-55
2021/06/07 01:11:26;;;;;;;4.28;3.33;;;;;;;16.13;59.18;101244.16;3520609;40;20051;-51
2021/06/07 01:13:53;;;;;;;3.85;3.00;;;;;;;16.09;58.50;101238.91;3519611;40;20055;-55
2021/06/07 01:16:21;;;;;;;4.32;3.28;;;;;;;15.90;58.49;101241.28;3520451;40;20108;-50
2021/06/07 01:18:49;;;;;;;4.40;3.40;;;;;;;15.95;59.27;101236.16;3520405;40;20160;-53
2021/06/07 01:21:19;;;;;;;5.78;3.35;;;;;;;15.83;58.86;101234.28;3517753;40;20051;-55
2021/06/07 01:23:47;;;;;;;5.32;3.20;;;;;;;15.92;59.32;101234.41;3520109;40;20119;-55
2021/06/07 01:26:19;;;;;;;3.97;3.60;;;;;;;15.76;59.49;101242.78;3520465;40;20048;-53
2021/06/07 01:28:47;;;;;;;6.75;3.85;;;;;;;15.92;60.36;101244.72;3520033;40;20062;-56
2021/06/07 01:31:15;;;;;;;8.55;3.70;;;;;;;15.56;59.37;101234.75;3520188;40;20184;-51
2021/06/07 01:33:46;;;;;;;4.88;3.75;;;;;;;15.53;60.29;101234.72;3520129;40;20106;-50
2021/06/07 01:36:13;;;;;;;4.03;3.58;;;;;;;15.40;60.76;101235.38;3520180;40;20063;-58
2021/06/07 01:38:41;;;;;;;6.38;3.60;;;;;;;15.52;60.62;101238.13;3520164;40;20075;-57
2021/06/07 01:41:10;;;;;;;3.97;3.35;;;;;;;15.41;61.52;101232.81;3520211;40;20096;-59
2021/06/07 01:43:38;;;;;;;4.75;3.45;;;;;;;15.32;61.73;101226.66;3520142;40;20047;-50
2021/06/07 01:46:06;;;;;;;6.13;4.03;;;;;;;15.21;62.87;101234.25;3516874;40;20423;-56
2021/06/07 01:48:35;;;;;;;5.47;4.00;;;;;;;15.19;63.17;101236.78;3520936;40;20417;-52
2021/06/07 01:51:05;;;;;;;4.55;4.00;;;;;;;15.31;62.32;101237.84;3519794;40;20091;-48
2021/06/07 01:53:32;;;;;;;8.90;4.22;;;;;;;15.15;62.89;101234.13;3520770;40;20094;-53
2021/06/07 01:56:04;;;;;;;5.43;3.88;;;;;;;15.18;63.19;101239.34;3514689;40;20118;-54
2021/06/07 01:58:31;;;;;;;5.07;3.88;;;;;;;15.00;63.01;101229.59;3520401;40;20067;-53
2021/06/07 02:01:03;;;;;;;8.13;4.05;;;;;;;15.16;62.85;101229.00;3519299;40;20103;-51
2021/06/07 02:03:31;;;;;;;4.60;3.78;;;;;;;14.97;63.15;101232.97;3520601;40;20087;-55
2021/06/07 02:06:03;;;;;;;3.78;3.47;;;;;;;15.12;62.73;101234.09;3519592;40;20075;-57
2021/06/07 02:08:31;;;;;;;5.40;4.00;;;;;;;14.97;63.72;101235.56;3520506;40;20035;-53
2021/06/07 02:11:04;;;;;;;3.92;3.63;;;;;;;14.96;64.67;101233.84;3519663;40;20499;-54
2021/06/07 02:13:31;;;;;;;6.13;3.80;;;;;;;14.78;65.26;101236.09;3520557;40;20328;-57
2021/06/07 02:16:08;;;;;;;6.20;4.28;;;;;;;14.85;65.34;101237.09;3519847;40;20376;-49
2021/06/07 02:18:37;;;;;;;4.43;4.03;;;;;;;14.72;64.91;101230.84;3520590;40;20062;-59
2021/06/07 02:21:08;;;;;;;8.70;4.20;;;;;;;14.62;65.91;101237.56;3517756;40;20449;-56
2021/06/07 02:23:36;;;;;;;6.88;3.90;;;;;;;14.59;66.19;101232.34;3520851;40;20099;-57
2021/06/07 02:26:06;;;;;;;5.97;3.63;;;;;;;14.86;65.61;101226.78;3516449;40;20040;-54
2021/06/07 02:28:35;;;;;;;5.57;3.97;;;;;;;15.24;63.61;101242.00;3520348;40;20334;-55
2021/06/07 02:31:04;;;;;;;4.40;4.00;;;;;;;15.05;64.38;101234.84;3519159;40;20139;-55
2021/06/07 02:33:31;;;;;;;4.55;3.63;;;;;;;15.19;63.97;101236.78;3520939;40;20061;-51
2021/06/07 02:35:58;;;;;;;4.85;3.75;;;;;;;14.80;64.74;101237.00;3519353;40;20048;-59
2021/06/07 02:38:25;;;;;;;5.63;3.85;;;;;;;14.82;64.97;101237.03;3520290;40;20040;-53
2021/06/07 02:40:53;;;;;;;6.95;4.00;;;;;;;14.40;66.99;101237.97;3519515;40;20102;-53
2021/06/07 02:43:21;;;;;;;4.88;4.18;;;;;;;14.82;64.81;101231.88;3520090;40;20123;-59
2021/06/07 02:45:49;;;;;;;7.95;4.45;;;;;;;14.43;66.90;101236.31;3519391;40;20437;-54
2021/06/07 02:48:16;;;;;;;6.38;4.65;;;;;;;14.64;66.85;101237.56;3520181;40;20062;-57
2021/06/07 02:50:46;;;;;;;4.93;4.43;;;;;;;14.30;68.09;101239.50;3519863;40;20091;-54
2021/06/07 02:53:15;;;;;;;7.35;4.18;;;;;;;14.17;68.52;101240.09;3519961;40;20055;-50
2021/06/07 02:55:51;;;;;;;5.00;3.85;;;;;;;14.43;67.94;101244.06;3520081;40;20380;-55
2021/06/07 02:58:22;;;;;;;5.13;4.40;;;;;;;14.62;67.06;101244.44;3517764;40;20352;-57
2021/06/07 03:00:51;;;;;;;6.65;4.45;;;;;;;14.88;65.83;101242.28;3520113;40;20324;-52
2021/06/07 03:03:19;;;;;;;5.68;4.32;;;;;;;14.74;67.07;101255.84;3517812;40;20099;-53
2021/06/07 03:05:49;;;;;;;7.50;4.30;;;;;;;14.59;66.55;101255.53;3519858;40;20059;-58
2021/06/07 03:08:21;;;;;;;7.18;4.25;;;;;;;14.63;68.00;101253.88;3520062;40;20626;-53
2021/06/07 03:10:54;;;;;;;5.13;4.65;;;;;;;14.33;70.25;101254.13;3519650;40;20114;-55
2021/06/07 03:13:23;;;;;;;6.40;4.63;;;;;;;14.36;69.31;101249.91;3517318;40;20059;-50
2021/06/07 03:15:53;;;;;;;5.30;4.75;;;;;;;14.33;69.54;101256.72;3519636;40;20091;-51
2021/06/07 03:18:21;;;;;;;4.85;4.45;;;;;;;14.48;69.00;101257.94;3517157;40;20087;-53
2021/06/07 03:20:49;;;;;;;5.68;4.50;;;;;;;14.52;68.77;101251.13;3519190;40;20087;-49
2021/06/07 03:23:21;;;;;;;5.03;4.53;;;;;;;14.11;70.91;101251.16;3520008;40;20071;-49
2021/06/07 03:25:50;;;;;;;7.10;4.40;;;;;;;14.36;69.32;101254.19;3519192;40;20377;-53
2021/06/07 03:28:18;;;;;;;5.05;4.55;;;;;;;14.30;70.37;101248.94;3516793;40;20054;-55
2021/06/07 03:30:46;;;;;;;5.90;4.90;;;;;;;14.41;70.32;101248.28;3519544;40;20059;-55
2021/06/07 03:33:14;;;;;;;5.07;4.53;;;;;;;14.55;69.41;101242.56;3519624;40;20059;-56
2021/06/07 03:35:44;;;;;;;7.55;4.65;;;;;;;14.10;71.18;101245.97;3519730;40;20421;-55
2021/06/07 03:38:13;;;;;;;6.18;4.10;;;;;;;14.40;69.76;101246.56;3520912;40;20086;-55
2021/06/07 03:40:42;;;;;;;7.18;5.05;;;;;;;14.42;70.13;101249.16;3521512;40;20052;-54
2021/06/07 03:43:10;;;;;;;5.45;4.90;;;;;;;14.29;70.75;101248.06;3520872;40;20058;-52
2021/06/07 03:45:38;;;;;;;7.35;4.93;;;;;;;14.04;71.09;101246.69;3521614;40;20104;-48
2021/06/07 03:48:05;;;;;;;5.28;4.70;;;;;;;14.28;71.42;101251.47;3518515;40;20074;-57
2021/06/07 03:50:34;;;;;;;5.72;4.40;;;;;;;13.96;71.96;101246.56;3521304;40;20079;-54
2021/06/07 03:53:02;;;;;;;7.68;5.20;;;;;;;14.14;71.69;101255.47;3520308;40;20099;-57
2021/06/07 03:55:31;;;;;;;7.80;5.30;;;;;;;14.08;72.81;101268.25;3521357;40;20078;-54
2021/06/07 03:57:58;;;;;;;7.30;5.00;;;;;;;14.18;72.31;101259.84;3520768;40;20361;-58
2021/06/07 04:00:29;;;;;;;6.65;4.80;;;;;;;14.35;71.07;101260.19;3521155;40;20331;-54
2021/06/07 04:02:57;;;;;;;7.50;4.90;;;;;;;14.30;72.14;101262.69;3520376;40;20549;-53
2021/06/07 04:05:26;;;;;;;8.13;5.18;;;;;;;14.21;72.23;101267.66;3520977;40;20063;-59
2021/06/07 04:07:53;;;;;;;7.93;4.63;;;;;;;14.24;72.74;101260.88;3520141;40;20419;-52
2021/06/07 04:10:22;;;;;;;6.50;4.80;;;;;;;14.42;72.01;101262.94;3521366;40;20107;-52
2021/06/07 04:12:52;;;;;;;6.72;4.63;;;;;;;14.40;72.66;101259.44;3519747;40;20380;-52
2021/06/07 04:15:31;;;;;;;6.75;5.38;;;;;;;14.24;73.08;101272.88;3518946;40;20353;-53
2021/06/07 04:18:03;;;;;;;6.72;4.47;;;;;;;14.67;71.86;101271.16;3519873;40;20068;-55
2021/06/07 04:20:33;;;;;;;7.82;4.90;;;;;;;14.65;71.54;101275.38;3521236;40;20097;-53
2021/06/07 04:23:01;;;;;;;5.72;4.65;;;;;;;14.62;71.94;101270.19;3519810;40;20063;-51
2021/06/07 04:25:30;;;;;;;7.88;4.97;;;;;;;14.93;69.87;101263.84;3521000;40;20233;-54
2021/06/07 04:28:00;;;;;;;7.07;5.20;;;;;;;14.75;71.58;101267.88;3517938;40;20201;-52
2021/06/07 04:30:30;;;;;;;6.93;4.97;;;;;;;14.88;70.80;101276.69;3515196;40;20064;-50
2021/06/07 04:32:59;;;;;;;6.10;4.75;;;;;;;14.77;72.40;101279.06;3516085;40;20059;-50
2021/06/07 04:35:27;;;;;;;4.75;4.30;;;;;;;15.00;71.41;101271.72;3515077;40;20302;-48
2021/06/07 04:37:56;;;;;;;6.25;4.43;;;;;;;15.23;67.69;101281.56;3516376;40;20071;-47
2021/06/07 04:40:32;;;;;;;6.40;5.00;;;;;;;14.99;70.39;101279.47;3521948;40;20428;-47
2021/06/07 04:43:02;;;;;;;4.90;4.50;;;;;;;15.14;69.42;101289.16;3515528;40;21369;-49
2021/06/07 04:45:38;;;;;;;7.97;5.45;;;;;;;15.49;66.46;101281.97;3516220;40;20337;-50
2021/06/07 04:48:06;;;;;;;7.63;4.60;;;;;;;15.61;65.79;101278.69;3515640;40;20072;-49
2021/06/07 04:50:34;;;;;;;5.90;5.30;;;;;;;15.39;67.46;101277.50;3517781;40;20059;-47
2021/06/07 04:53:03;;;;;;;7.05;5.10;;;;;;;15.79;65.14;101274.69;3516704;40;20103;-48
2021/06/07 04:55:42;;;;;;;7.15;6.07;;;;;;;15.86;65.97;101274.78;3517361;40;20051;-46
2021/06/07 04:58:30;;;;;;;5.20;4.57;;;;;;;16.01;65.33;101274.97;3518263;40;20055;-49
2021/06/07 05:01:04;;;;;;;7.07;5.38;;;;;;;16.13;65.51;101288.06;3517984;40;20290;-48
2021/06/07 05:03:33;;;;;;;7.20;5.07;;;;;;;16.09;64.49;101282.84;3516630;40;20374;-47
2021/06/07 05:06:04;;;;;;;8.32;4.80;;;;;;;15.95;65.50;101282.66;3518979;40;20788;-46
2021/06/07 05:08:33;;;;;;;9.00;5.05;;;;;;;16.15;64.08;101282.91;3515599;40;20071;-47
2021/06/07 05:11:01;;;;;;;6.93;5.15;;;;;;;16.01;64.03;101275.84;3515907;40;20094;-47
2021/06/07 05:13:29;;;;;;;5.43;4.90;;;;;;;16.64;62.46;101288.63;3519589;40;20079;-46
2021/06/07 05:15:57;;;;;;;6.28;5.13;;;;;;;16.64;62.66;101296.38;3517043;40;20087;-46
2021/06/07 05:18:25;;;;;;;9.43;5.20;;;;;;;16.36;63.08;101293.53;3516371;40;20148;-50
2021/06/07 05:20:52;;;;;;;9.73;5.40;;;;;;;16.84;61.58;101299.22;3516075;40;20123;-46
2021/06/07 05:23:21;;;;;;;5.70;4.93;;;;;;;16.72;60.81;101294.78;3517055;40;20088;-45
2021/06/07 05:25:48;;;;;;;7.28;4.35;;;;;;;16.52;62.38;101305.75;3516079;40;20096;-49
2021/06/07 05:28:18;;;;;;;5.70;4.38;;;;;;;16.54;62.60;101305.75;3514924;40;20092;-48
2021/06/07 05:30:48;;;;;;;7.65;5.22;;;;;;;16.94;60.16;101306.22;3515838;40;20066;-48
2021/06/07 05:33:16;;;;;;;7.00;5.13;;;;;;;17.00;59.46;101307.13;3514847;40;20060;-51
2021/06/07 05:35:46;;;;;;;6.43;5.10;;;;;;;16.65;61.48;101301.59;3515452;40;20325;-50
2021/06/07 05:38:15;;;;;;;6.03;4.38;;;;;;;17.14;60.40;101306.38;3515258;40;20463;-48
2021/06/07 05:40:44;;;;;;;10.30;5.00;;;;;;;17.14;60.08;101308.97;3515666;40;20325;-46
2021/06/07 05:43:16;;;;;;;5.45;4.22;;;;;;;17.18;59.14;101305.56;3516652;40;20059;-46
2021/06/07 05:45:45;;;;;;;7.47;4.68;;;;;;;17.44;58.51;101311.81;3516621;40;20062;-50
2021/06/07 05:48:12;;;;;;;8.52;4.90;;;;;;;17.44;58.89;101317.00;3515401;40;20135;-48
2021/06/07 05:50:40;;;;;;;9.82;5.30;;;;;;;17.95;58.12;101314.75;3515471;40;20407;-47
2021/06/07 05:53:11;;;;;;;10.50;5.03;;;;;;;17.75;56.81;101317.25;3517942;40;20497;-47
2021/06/07 05:55:43;;;;;;;7.53;4.95;;;;;;;18.01;58.18;101315.66;3515040;40;20062;-48
2021/06/07 05:58:17;;;;;;;6.47;4.70;;;;;;;18.10;55.71;101311.38;3517510;40;20066;-47
2021/06/07 06:00:48;;;;;;;7.93;4.63;;;;;;;18.05;55.87;101309.63;3514826;40;20036;-50
2021/06/07 06:03:16;;;;;;;6.47;5.00;;;;;;;18.26;56.10;101318.38;3514887;40;20048;-46
2021/06/07 06:05:44;;;;;;;5.97;4.43;;;;;;;18.00;57.02;101318.25;3515495;40;20063;-46
2021/06/07 06:08:11;;;;;;;8.43;4.75;;;;;;;18.44;56.63;101314.97;3514745;40;20079;-50
2021/06/07 06:10:39;;;;;;;8.20;4.53;;;;;;;18.26;56.69;101315.78;3515282;40;20091;-46
2021/06/07 06:13:27;;;;;;;6.22;4.40;;;;;;;18.74;55.48;101315.09;3514568;40;20394;-49
2021/06/07 06:15:54;;;;;;;9.75;4.38;;;;;;;18.79;55.64;101317.69;3515879;40;20074;-45
2021/06/07 06:18:21;;;;;;;5.57;4.68;;;;;;;18.77;54.82;101317.69;3514734;40;20056;-49
2021/06/07 06:20:48;;;;;;;8.43;4.70;;;;;;;19.05;55.42;101320.34;3515309;40;20095;-48
2021/06/07 06:23:15;;;;;;;8.40;5.10;;;;;;;19.25;54.86;101323.78;3514349;40;20083;-47
2021/06/07 06:25:42;;;;;;;6.28;4.90;;;;;;;19.41;55.50;101321.19;3514984;40;20056;-48
2021/06/07 06:28:11;;;;;;;9.07;4.60;;;;;;;19.55;55.21;101324.63;3514936;40;20421;-46
2021/06/07 06:30:48;;;;;;;9.02;4.68;;;;;;;19.58;53.45;101319.44;3515101;40;20063;-46
2021/06/07 06:33:18;;;;;;;7.72;4.60;;;;;;;19.83;53.23;101312.53;3514558;40;20337;-48
2021/06/07 06:35:45;;;;;;;7.63;5.35;;;;;;;19.82;53.05;101319.41;3515153;40;20060;-48
2021/06/07 06:38:12;;;;;;;6.60;4.40;;;;;;;19.76;53.55;101328.97;3514895;40;20432;-47
2021/06/07 06:40:41;;;;;;;7.05;4.22;;;;;;;19.81;52.34;101319.44;3514966;40;20140;-49
2021/06/07 06:43:15;;;;;;;5.97;4.43;;;;;;;19.81;53.05;101324.63;3517379;40;20047;-49
2021/06/07 06:45:43;;;;;;;7.60;4.60;;;;;;;19.80;50.56;101323.78;3515045;40;20309;-45
2021/06/07 06:48:10;;;;;;;6.65;4.78;;;;;;;19.97;50.54;101325.47;3515233;40;20436;-48
2021/06/07 06:50:40;;;;;;;6.30;4.07;;;;;;;20.14;51.10;101320.22;3514487;40;20068;-47
2021/06/07 06:53:11;;;;;;;6.25;4.10;;;;;;;20.06;51.16;101328.06;3517256;40;20364;-46
2021/06/07 06:55:38;;;;;;;9.85;4.40;;;;;;;20.32;49.73;101322.72;3514762;40;20064;-51
2021/06/07 06:58:08;;;;;;;5.35;3.67;;;;;;;20.65;49.37;101332.13;3517001;40;20434;-46
2021/06/07 07:00:36;;;;;;;7.80;4.78;;;;;;;20.78;49.04;101328.59;3514274;40;20148;-45
2021/06/07 07:03:15;;;;;;;5.00;4.25;;;;;;;20.84;49.90;101333.78;3515040;40;20335;-45
2021/06/07 07:05:43;;;;;;;6.28;4.20;;;;;;;20.83;48.51;101332.03;3514302;40;20048;-46
2021/06/07 07:08:11;;;;;;;8.90;4.20;;;;;;;20.70;47.81;101329.50;3514291;40;20054;-46
2021/06/07 07:10:40;;;;;;;5.28;3.88;;;;;;;21.05;48.63;101334.50;3514327;40;20076;-48
2021/06/07 07:13:08;;;;;;;7.88;4.05;;;;;;;21.15;47.49;101336.16;3518418;40;20070;-45
2021/06/07 07:15:36;;;;;;;4.57;4.07;;;;;;;21.20;47.36;101333.50;3515712;40;20051;-49
2021/06/07 07:18:05;;;;;;;6.30;3.50;;;;;;;21.56;47.98;101335.84;3516331;40;20063;-48
2021/06/07 07:20:33;;;;;;;8.02;3.97;;;;;;;21.62;46.82;101332.31;3515671;40;20141;-46
2021/06/07 07:23:02;;;;;;;4.20;3.80;;;;;;;21.63;46.69;101333.16;3516542;40;20091;-45
2021/06/07 07:25:30;;;;;;;5.90;4.43;;;;;;;21.85;45.86;101330.31;3515824;40;20504;-47
2021/06/07 07:28:02;;;;;;;6.28;4.30;;;;;;;21.89;45.01;101338.13;3516259;40;20074;-49
2021/06/07 07:30:31;;;;;;;7.00;4.15;;;;;;;22.32;45.34;101343.72;3515493;40;20095;-49
2021/06/07 07:32:58;;;;;;;8.48;4.07;;;;;;;22.40;43.29;101335.81;3518620;40;20571;-45
2021/06/07 07:35:29;;;;;;;5.97;3.88;;;;;;;22.78;43.45;101338.75;3520085;40;20333;-45
2021/06/07 07:38:04;;;;;;;4.38;3.88;;;;;;;23.11;43.56;101341.81;3518022;40;20096;-47
2021/06/07 07:40:38;;;;;;;8.52;4.28;;;;;;;23.70;42.69;101345.16;3515819;40;20234;-45
2021/06/07 07:43:05;;;;;;;5.40;3.63;;;;;;;23.45;41.56;101341.25;3516467;40;20055;-48
2021/06/07 07:45:32;;;;;;;6.68;3.45;;;;;;;23.38;41.07;101340.47;3515652;40;20059;-47
2021/06/07 07:48:02;;;;;;;6.03;3.45;;;;;;;23.47;41.15;101339.44;3516701;40;20070;-49
2021/06/07 07:50:30;;;;;;;5.47;3.78;;;;;;;23.49;40.57;101341.16;3517574;40;20171;-45
2021/06/07 07:53:05;;;;;;;10.77;3.95;;;;;;;23.53;43.08;101339.34;3516443;40;20069;-49
2021/06/07 07:55:34;;;;;;;6.43;3.38;;;;;;;23.42;41.29;101339.53;3515537;40;20075;-47
2021/06/07 07:58:06;;;;;;;5.07;3.45;;;;;;;23.74;41.52;101348.59;3516103;40;20098;-51
2021/06/07 08:00:34;;;;;;;8.57;4.40;;;;;;;23.78;40.75;101348.50;3515525;40;20445;-46
2021/06/07 08:03:01;;;;;;;5.82;3.65;;;;;;;23.48;40.85;101343.78;3516018;40;20129;-46
2021/06/07 08:05:29;;;;;;;7.35;3.58;;;;;;;24.12;40.26;101342.63;3515054;40;20056;-46
2021/06/07 08:07:58;;;;;;;6.45;4.00;;;;;;;24.57;40.30;101346.06;3516041;40;20059;-47
2021/06/07 08:10:26;;;;;;;8.43;3.63;;;;;;;24.79;39.52;101348.22;3515240;40;20283;-45
2021/06/07 08:12:54;;;;;;;7.82;3.90;;;;;;;24.52;38.88;101345.31;3516496;40;20213;-47
2021/06/07 08:15:23;;;;;;;3.53;3.10;;;;;;;25.54;38.26;101347.25;3515163;40;20060;-46
2021/06/07 08:17:50;;;;;;;4.22;3.38;;;;;;;26.09;38.13;101343.19;3519131;40;20163;-49
2021/06/07 08:20:21;;;;;;;5.88;3.65;;;;;;;26.48;35.12;101350.81;3515328;40;20047;-46
2021/06/07 08:22:54;;;;;;;6.57;3.50;;;;;;;25.90;36.56;101337.59;3515522;40;20063;-48
2021/06/07 08:25:24;;;;;;;4.40;3.53;;;;;;;25.30;35.69;101337.41;3515508;40;20072;-46
2021/06/07 08:28:04;;;;;;;5.10;3.22;;;;;;;24.83;36.70;101334.16;3515993;40;20301;-46
2021/06/07 08:30:41;;;;;;;4.90;3.22;;;;;;;25.18;34.89;101335.09;3514877;40;20076;-46
2021/06/07 08:33:10;;;;;;;6.72;3.83;;;;;;;25.00;35.37;101337.22;3514962;40;20062;-46
2021/06/07 08:35:38;;;;;;;4.45;3.20;;;;;;;24.88;36.80;101332.28;3515187;40;20056;-47
2021/06/07 08:38:06;;;;;;;3.53;3.03;;;;;;;24.59;34.60;101330.34;3514982;40;20370;-48
2021/06/07 08:40:41;;;;;;;8.15;3.42;;;;;;;24.48;36.91;101327.94;3515435;40;20060;-48
2021/06/07 08:43:16;;;;;;;6.65;3.47;;;;;;;24.51;37.13;101335.72;3515083;40;20047;-48
2021/06/07 08:45:47;;;;;;;7.18;3.28;;;;;;;24.24;37.08;101333.66;3515779;40;20075;-46
2021/06/07 08:48:31;;;;;;;7.70;3.05;;;;;;;24.03;33.71;101324.47;3514188;40;20060;-50
2021/06/07 08:51:03;;;;;;;3.15;2.85;;;;;;;24.24;36.97;101333.66;3516374;40;20051;-46
2021/06/07 08:53:33;;;;;;;6.35;2.88;;;;;;;24.25;34.80;101336.25;3514827;40;20472;-49
2021/06/07 08:56:01;;;;;;;3.80;3.38;;;;;;;24.41;36.07;101331.59;3514947;40;20316;-47
2021/06/07 08:58:29;;;;;;;5.15;3.08;;;;;;;24.07;33.76;101329.63;3514744;40;20159;-45
2021/06/07 09:00:57;;;;;;;6.95;3.00;;;;;;;24.32;34.43;101342.22;3515958;40;20514;-49
2021/06/07 09:03:31;;;;;;;2.92;2.60;;;;;;;24.86;32.97;101337.53;3515434;40;20314;-47
2021/06/07 09:06:01;;;;;;;4.97;2.85;;;;;;;24.87;33.57;101341.03;3516657;40;20055;-48
2021/06/07 09:08:38;;;;;;;6.75;3.05;;;;;;;24.60;34.00;101338.16;3513576;40;20063;-45
2021/06/07 09:11:17;;;;;;;3.55;2.47;;;;;;;24.37;33.81;101335.16;3514832;40;20252;-48
2021/06/07 09:13:45;;;;;;;4.97;2.47;;;;;;;24.88;34.04;101338.38;3516122;40;20605;-45
2021/06/07 09:16:13;;;;;;;4.07;3.10;;;;;;;25.22;33.02;101347.22;3515271;40;20422;-49
2021/06/07 09:18:45;;;;;;;4.68;3.20;;;;;;;25.32;33.57;101346.94;3515820;40;20044;-49
2021/06/07 09:21:16;;;;;;;3.20;2.92;;;;;;;25.29;30.96;101339.19;3520238;40;20066;-48
2021/06/07 09:23:49;;;;;;;6.07;2.92;;;;;;;25.67;32.12;101349.56;3520892;40;20329;-45
2021/06/07 09:26:24;;;;;;;3.97;3.22;;;;;;;26.41;32.79;101349.25;3520401;40;20103;-48
2021/06/07 09:28:58;;;;;;;4.95;2.90;;;;;;;26.36;32.61;101356.41;3516746;40;20092;-46
2021/06/07 09:31:34;;;;;;;5.15;3.10;;;;;;;26.98;32.53;101360.69;3522194;40;20127;-47
2021/06/07 09:34:07;;;;;;;3.65;2.60;;;;;;;27.02;28.71;101355.28;3524606;40;20136;-46
2021/06/07 09:36:44;;;;;;;6.43;3.40;;;;;;;27.45;31.08;101346.00;3522569;40;20490;-49
2021/06/07 09:39:25;;;;;;;4.93;2.97;;;;;;;27.28;30.42;101356.25;3517610;40;20079;-47
2021/06/07 09:42:05;;;;;;;4.30;3.60;;;;;;;27.62;30.03;101348.91;3519384;40;20058;-48
2021/06/07 09:44:45;;;;;;;3.25;2.95;;;;;;;27.44;30.42;101352.16;3514808;40;20384;-46
2021/06/07 09:47:18;;;;;;;6.78;3.40;;;;;;;27.40;31.07;101346.16;3518136;40;20416;-46
2021/06/07 09:49:59;;;;;;;7.18;3.03;;;;;;;27.16;30.45;101345.19;3515537;40;20293;-51
2021/06/07 09:52:43;;;;;;;5.72;3.85;;;;;;;27.06;32.26;101346.38;3514809;40;20062;-49
2021/06/07 09:55:20;;;;;;;5.88;3.35;;;;;;;27.83;31.40;101351.75;3517646;40;20508;-47
2021/06/07 09:57:52;;;;;;;3.65;3.10;;;;;;;28.58;29.72;101348.97;3515806;40;20401;-46
2021/06/07 10:00:43;;;;;;;4.25;3.10;;;;;;;28.84;27.95;101353.19;3514726;40;20062;-50
2021/06/07 10:03:24;;;;;;;6.32;3.45;;;;;;;28.01;28.67;101345.81;3517490;40;20068;-47
2021/06/07 10:05:58;;;;;;;6.32;3.72;;;;;;;29.34;28.33;101351.16;3515605;40;20065;-46
2021/06/07 10:08:39;;;;;;;3.45;3.15;;;;;;;30.60;25.85;101356.16;3515607;40;20049;-49
2021/06/07 10:11:22;;;;;;;6.45;3.47;;;;;;;29.42;26.49;101342.94;3517744;40;20124;-48
2021/06/07 10:14:05;;;;;;;4.57;3.10;;;;;;;34.19;23.50;101354.19;3517074;40;20075;-46
2021/06/07 10:16:32;;;;;;;6.40;3.50;;;;;;;33.94;23.24;101353.03;3515558;40;20125;-47
2021/06/07 10:19:05;;;;;;;7.30;3.33;;;;;;;35.78;21.07;101350.81;3516534;40;20256;-47
2021/06/07 10:21:32;;;;;;;8.02;4.05;;;;;;;36.26;19.53;101369.66;3519064;40;20141;-48
2021/06/07 10:24:00;;;;;;;4.75;3.47;;;;;;;33.07;21.92;101352.09;3518863;40;20047;-47
2021/06/07 10:26:27;;;;;;;5.82;3.72;;;;;;;35.68;20.46;101351.47;3520286;40;20122;-47
2021/06/07 10:28:56;;;;;;;4.15;3.20;;;;;;;33.62;21.40;101349.69;3517128;40;20063;-47
2021/06/07 10:31:25;;;;;;;5.45;4.22;;;;;;;32.76;22.88;101337.03;3521840;40;20046;-48
2021/06/07 10:34:04;;;;;;;9.80;3.30;;;;;;;37.36;17.73;101348.16;3521101;40;20531;-44
2021/06/07 10:36:40;;;;;;;3.83;3.03;;;;;;;38.35;17.96;101361.72;3519594;40;20042;-52
2021/06/07 10:39:17;;;;;;;3.08;2.72;;;;;;;37.26;18.26;101349.81;3520979;40;20083;-50
2021/06/07 10:41:46;;;;;;;11.05;3.47;;;;;;;37.25;18.76;101350.78;3518125;40;20056;-45
2021/06/07 10:44:14;;;;;;;5.75;3.20;;;;;;;38.97;16.64;101357.56;3515827;40;20095;-53
2021/06/07 10:46:43;;;;;;;6.07;3.53;;;;;;;40.94;14.70;101361.69;3519337;40;20095;-48
2021/06/07 10:49:35;;;;;;;5.13;2.90;;;;;;;40.21;14.20;101353.09;3521834;40;20114;-48
2021/06/07 10:52:08;;;;;;;3.80;3.40;;;;;;;39.01;16.73;101360.81;3518566;40;20067;-48
2021/06/07 10:54:38;;;;;;;13.02;3.70;;;;;;;38.83;16.27;101352.47;3522375;40;20385;-51
2021/06/07 10:57:28;;;;;;;4.78;3.38;;;;;;;39.71;15.42;101350.34;3521690;40;20067;-50
2021/06/07 11:00:30;;;;;;;6.95;4.15;;;;;;;39.14;16.05;101348.09;3520665;40;20074;-49
2021/06/07 11:03:01;;;;;;;4.95;3.58;;;;;;;40.23;16.23;101347.56;3522214;40;20832;-50
2021/06/07 11:05:32;;;;;;;15.95;5.35;;;;;;;38.88;16.53;101336.91;3520596;40;20106;-47
2021/06/07 11:08:07;;;;;;;65.03;11.65;;;;;;;40.03;16.05;101335.91;3521712;40;20039;-47
2021/06/07 11:11:04;;;;;;;10.10;3.97;;;;;;;39.86;16.58;101341.91;3522815;40;20071;-47
2021/06/07 11:13:34;;;;;;;89.53;13.43;;;;;;;40.78;15.07;101334.53;3520558;40;20080;-45
2021/06/07 11:16:03;;;;;;;6.53;3.70;;;;;;;40.37;16.67;101339.13;3518536;40;20055;-45
2021/06/07 11:18:32;;;;;;;7.95;4.07;;;;;;;40.97;14.47;101339.06;3518209;40;20102;-51
2021/06/07 11:21:08;;;;;;;4.85;4.05;;;;;;;42.20;14.80;101341.66;3521701;40;20141;-46
2021/06/07 11:23:43;;;;;;;6.95;3.80;;;;;;;41.87;14.47;101340.41;3517555;40;20091;-50
2021/06/07 11:26:20;;;;;;;8.57;4.15;;;;;;;41.51;14.44;101334.88;3520964;40;20051;-46
2021/06/07 11:28:48;;;;;;;7.32;3.70;;;;;;;42.68;13.17;101333.28;3521093;40;20076;-52
2021/06/07 11:31:17;;;;;;;4.10;3.80;;;;;;;42.74;12.90;101334.50;3523111;40;20059;-53
2021/06/07 11:33:49;;;;;;;6.05;3.63;;;;;;;41.53;14.98;101323.97;3519256;40;20229;-51
2021/06/07 11:36:49;;;;;;;57.83;9.85;;;;;;;41.75;14.14;101323.59;3519912;40;20162;-48
2021/06/07 11:39:44;;;;;;;9.27;3.80;;;;;;;40.09;15.35;101313.06;3521861;40;20057;-50
2021/06/07 11:42:17;;;;;;;5.07;3.67;;;;;;;39.46;15.55;101313.19;3522229;40;20040;-50